Time;durP1;ratioP1;P1;durP2;ratioP2;P2;SDS_P1;SDS_P2;PMS_P1;PMS_P2;Temp;Humidity;BMP_temperature;BMP_pressure;BME280_temperature;BME280_humidity;BME280_pressure;Samples;Min_cycle;Max_cycle;Signal;HPM_P1;HPM_P2
2023/12/01 00:02:05;;;;;;;56.25;26.60;;;-0.30;92.50;;;;;;5109690;28;20445;-73
2023/12/01 00:04:31;;;;;;;55.57;27.27;;;-0.30;92.50;;;;;;5109887;28;20420;-73
2023/12/01 00:06:57;;;;;;;56.22;27.10;;;-0.30;92.40;;;;;;5110502;28;20499;-73
2023/12/01 00:09:23;;;;;;;56.50;27.52;;;-0.30;92.40;;;;;;5108930;28;20405;-73
2023/12/01 00:11:49;;;;;;;55.88;28.33;;;-0.30;92.40;;;;;;5107847;28;20435;-73
2023/12/01 00:14:15;;;;;;;57.28;27.85;;;-0.30;92.40;;;;;;5107367;28;20507;-73
2023/12/01 00:16:40;;;;;;;54.30;26.73;;;-0.40;92.20;;;;;;5109144;28;20423;-73
2023/12/01 00:19:06;;;;;;;56.93;27.57;;;-0.40;92.20;;;;;;5107268;28;20455;-73
2023/12/01 00:21:32;;;;;;;56.63;28.60;;;-0.40;92.10;;;;;;5108506;28;20918;-73
2023/12/01 00:23:57;;;;;;;55.25;27.20;;;-0.40;92.10;;;;;;5090307;28;20416;-73
2023/12/01 00:26:23;;;;;;;53.37;26.17;;;-0.40;92.20;;;;;;5109913;28;20400;-71
2023/12/01 00:28:48;;;;;;;54.53;26.63;;;-0.40;92.10;;;;;;5110023;28;20401;-71
2023/12/01 00:31:14;;;;;;;48.42;25.13;;;-0.50;91.80;;;;;;5109899;28;20534;-71
2023/12/01 00:33:40;;;;;;;50.87;25.37;;;-0.50;91.50;;;;;;5108500;28;20963;-71
2023/12/01 00:36:06;;;;;;;48.50;24.67;;;-0.50;91.50;;;;;;5109850;28;20408;-71
2023/12/01 00:38:32;;;;;;;51.30;25.27;;;-0.50;91.60;;;;;;5109748;28;20417;-71
2023/12/01 00:41:09;;;;;;;44.70;23.10;;;-0.60;91.80;;;;;;5098339;28;20420;-71
2023/12/01 00:43:36;;;;;;;48.30;24.10;;;-0.50;91.80;;;;;;5097257;28;20476;-71
2023/12/01 00:46:21;;;;;;;44.55;22.13;;;-0.60;91.80;;;;;;5109735;28;20490;-71
2023/12/01 00:48:46;;;;;;;42.22;21.65;;;-0.50;91.80;;;;;;5107476;28;20515;-71
2023/12/01 00:51:19;;;;;;;41.03;21.17;;;-0.60;91.60;;;;;;5109693;28;20782;-71
2023/12/01 00:53:46;;;;;;;44.42;22.23;;;-0.60;91.20;;;;;;5108485;28;20424;-71
2023/12/01 00:56:12;;;;;;;41.60;21.38;;;-0.70;91.00;;;;;;5107469;28;20938;-71
2023/12/01 00:58:38;;;;;;;42.15;20.67;;;-0.70;90.90;;;;;;5090570;28;20405;-71
2023/12/01 01:01:05;;;;;;;42.33;21.73;;;-0.70;91.00;;;;;;5089758;28;20474;-71
2023/12/01 01:03:31;;;;;;;43.63;22.00;;;-0.80;91.10;;;;;;5107263;28;20432;-71
2023/12/01 01:05:57;;;;;;;40.72;21.77;;;-0.80;91.30;;;;;;5109046;28;20856;-71
2023/12/01 01:08:22;;;;;;;41.63;21.13;;;-0.80;91.40;;;;;;5108821;28;20516;-71
2023/12/01 01:10:48;;;;;;;43.33;21.60;;;-0.80;91.40;;;;;;5091138;28;20416;-71
2023/12/01 01:13:14;;;;;;;43.28;21.85;;;-0.80;91.50;;;;;;5107040;28;20430;-71
2023/12/01 01:15:40;;;;;;;43.53;22.13;;;-0.70;91.60;;;;;;5107986;28;20754;-71
2023/12/01 01:18:06;;;;;;;39.05;21.20;;;-0.70;91.50;;;;;;5107183;28;20415;-70
2023/12/01 01:20:32;;;;;;;42.30;21.45;;;-0.70;91.40;;;;;;5108963;27;20393;-71
2023/12/01 01:22:58;;;;;;;39.22;21.45;;;-0.70;91.40;;;;;;5108150;28;20432;-71
2023/12/01 01:25:23;;;;;;;43.05;21.52;;;-0.70;91.40;;;;;;5108020;28;20461;-71
2023/12/01 01:27:49;;;;;;;40.37;21.30;;;-0.60;91.40;;;;;;5108137;28;20484;-71
2023/12/01 01:30:15;;;;;;;39.63;20.93;;;-0.70;91.30;;;;;;5109396;28;20395;-71
2023/12/01 01:32:40;;;;;;;39.30;20.85;;;-0.70;91.20;;;;;;5102306;28;20420;-71
2023/12/01 01:35:07;;;;;;;39.17;20.35;;;-0.70;91.00;;;;;;5109121;28;20407;-71
2023/12/01 01:37:33;;;;;;;34.40;18.85;;;-0.70;91.00;;;;;;5108337;28;20841;-71
2023/12/01 01:39:59;;;;;;;35.37;18.70;;;-0.70;91.00;;;;;;5108567;28;20419;-71
2023/12/01 01:42:24;;;;;;;34.07;18.57;;;-0.70;90.90;;;;;;5106743;28;20436;-71
2023/12/01 01:44:50;;;;;;;34.90;17.88;;;-0.70;90.70;;;;;;5108662;28;20886;-71
2023/12/01 01:47:16;;;;;;;33.40;17.80;;;-0.80;90.60;;;;;;5102989;28;20416;-71
2023/12/01 01:49:42;;;;;;;34.33;18.02;;;-0.80;90.50;;;;;;5095304;28;20772;-71
2023/12/01 01:52:10;;;;;;;32.20;17.33;;;-0.80;90.50;;;;;;5105260;28;20431;-71
2023/12/01 01:54:37;;;;;;;31.52;17.23;;;-0.90;90.50;;;;;;5108922;28;20740;-71
2023/12/01 01:57:02;;;;;;;33.90;18.02;;;-0.90;90.40;;;;;;5108365;28;20400;-71
2023/12/01 01:59:28;;;;;;;29.53;16.53;;;-0.90;90.30;;;;;;5114100;27;20421;-71
2023/12/01 02:01:54;;;;;;;29.07;16.47;;;-1.00;90.00;;;;;;5108338;27;20438;-71
2023/12/01 02:04:20;;;;;;;30.63;16.88;;;-1.00;89.60;;;;;;5103947;27;20438;-71
2023/12/01 02:06:46;;;;;;;28.45;15.85;;;-1.10;89.00;;;;;;5128266;27;20395;-71
2023/12/01 02:09:15;;;;;;;31.73;16.65;;;-1.20;88.80;;;;;;5109882;27;20427;-71
2023/12/01 02:11:41;;;;;;;27.67;15.82;;;-1.20;88.90;;;;;;5127975;27;20413;-71
2023/12/01 02:14:07;;;;;;;30.15;16.05;;;-1.20;88.80;;;;;;5110083;28;20500;-71
2023/12/01 02:16:33;;;;;;;29.17;16.23;;;-1.30;88.70;;;;;;5110237;27;20485;-71
2023/12/01 02:18:59;;;;;;;27.65;15.23;;;-1.30;88.70;;;;;;5108975;27;20795;-71
2023/12/01 02:21:25;;;;;;;28.10;15.32;;;-1.40;88.70;;;;;;5110044;28;20418;-71
2023/12/01 02:23:52;;;;;;;25.73;14.73;;;-1.40;88.90;;;;;;5110594;28;20508;-71
2023/12/01 02:26:18;;;;;;;27.63;15.45;;;-1.40;88.90;;;;;;5127725;27;20796;-71
2023/12/01 02:28:43;;;;;;;25.20;14.70;;;-1.40;88.80;;;;;;5101915;27;20398;-71
2023/12/01 02:31:09;;;;;;;24.30;14.87;;;-1.50;88.80;;;;;;5128568;27;20443;-71
2023/12/01 02:33:35;;;;;;;26.03;14.20;;;-1.50;88.90;;;;;;5110359;28;20399;-71
2023/12/01 02:36:03;;;;;;;26.37;14.80;;;-1.50;89.00;;;;;;5127525;28;20556;-71
2023/12/01 02:38:29;;;;;;;24.13;14.13;;;-1.50;89.00;;;;;;5128918;28;20482;-71
2023/12/01 02:40:54;;;;;;;24.77;14.50;;;-1.50;88.90;;;;;;5115593;28;20592;-71
2023/12/01 02:43:21;;;;;;;24.58;14.23;;;-1.50;89.00;;;;;;5128522;28;20419;-71
2023/12/01 02:45:46;;;;;;;24.73;14.20;;;-1.50;88.80;;;;;;5091753;28;20414;-71
2023/12/01 02:48:12;;;;;;;25.35;14.45;;;-1.60;88.30;;;;;;5103557;28;20425;-71
2023/12/01 02:50:38;;;;;;;26.10;14.65;;;-1.60;88.50;;;;;;5091834;28;20579;-71
2023/12/01 02:53:05;;;;;;;23.75;14.68;;;-1.60;88.30;;;;;;5129123;28;20485;-71
2023/12/01 02:55:31;;;;;;;23.38;13.98;;;-1.70;88.20;;;;;;5127786;28;20425;-70
2023/12/01 02:57:57;;;;;;;26.10;14.57;;;-1.70;88.40;;;;;;5128502;28;20410;-71
2023/12/01 03:00:23;;;;;;;22.92;13.82;;;-1.70;88.40;;;;;;5119673;27;20410;-70
2023/12/01 03:02:52;;;;;;;24.45;14.40;;;-1.70;88.20;;;;;;5110055;27;20426;-70
2023/12/01 03:05:19;;;;;;;22.97;13.87;;;-1.70;88.20;;;;;;5109307;28;20776;-70
2023/12/01 03:07:45;;;;;;;25.30;14.43;;;-1.70;88.20;;;;;;5099795;28;20416;-70
2023/12/01 03:10:12;;;;;;;22.73;13.95;;;-1.70;88.20;;;;;;5108953;28;20488;-70
2023/12/01 03:12:39;;;;;;;23.65;13.80;;;-1.70;87.80;;;;;;5109679;28;20964;-70
2023/12/01 03:15:07;;;;;;;24.63;14.63;;;-1.70;87.70;;;;;;5110084;28;20405;-70
2023/12/01 03:17:33;;;;;;;23.17;14.43;;;-1.70;87.50;;;;;;5109955;28;20438;-71
2023/12/01 03:19:59;;;;;;;22.93;13.50;;;-1.70;87.20;;;;;;5111167;27;20445;-70
2023/12/01 03:22:24;;;;;;;23.63;14.45;;;-1.70;87.10;;;;;;5113639;27;20430;-70
2023/12/01 03:24:53;;;;;;;24.90;15.00;;;-1.70;87.20;;;;;;5129565;27;20425;-70
2023/12/01 03:27:19;;;;;;;24.83;14.05;;;-1.80;87.20;;;;;;5094775;27;20418;-70
2023/12/01 03:29:44;;;;;;;23.83;14.18;;;-1.80;87.20;;;;;;5131366;27;20807;-70
2023/12/01 03:32:11;;;;;;;23.52;13.70;;;-1.70;86.90;;;;;;5125687;27;20459;-70
2023/12/01 03:34:37;;;;;;;22.98;13.80;;;-1.80;86.40;;;;;;5132159;27;20464;-70
2023/12/01 03:37:03;;;;;;;23.30;13.93;;;-1.80;86.00;;;;;;5112593;27;20418;-70
2023/12/01 03:39:30;;;;;;;24.20;14.23;;;-1.80;86.10;;;;;;5095655;27;20433;-71
2023/12/01 03:41:55;;;;;;;26.20;14.98;;;-1.90;86.00;;;;;;5130446;27;20920;-70
2023/12/01 03:44:21;;;;;;;23.87;13.83;;;-1.90;85.90;;;;;;5128792;27;20406;-70
2023/12/01 03:46:47;;;;;;;23.93;14.07;;;-1.90;85.80;;;;;;5130457;27;20437;-70
2023/12/01 03:49:13;;;;;;;24.17;13.97;;;-1.90;85.90;;;;;;5127014;27;20452;-71
2023/12/01 03:51:39;;;;;;;24.43;14.63;;;-1.90;85.90;;;;;;5113861;27;20424;-71
2023/12/01 03:54:05;;;;;;;24.27;14.38;;;-2.00;85.90;;;;;;5115330;27;20920;-71
2023/12/01 03:56:31;;;;;;;27.47;14.90;;;-2.00;86.20;;;;;;5124849;27;20461;-71
2023/12/01 03:58:56;;;;;;;23.60;14.63;;;-1.90;86.20;;;;;;5098660;27;20515;-72
2023/12/01 04:01:31;;;;;;;25.33;15.25;;;-2.00;86.00;;;;;;5121832;27;20411;-71
2023/12/01 04:03:57;;;;;;;27.83;16.63;;;-2.00;86.00;;;;;;5131026;27;20440;-71
2023/12/01 04:06:22;;;;;;;26.90;15.27;;;-2.00;86.00;;;;;;5129850;27;20418;-71
2023/12/01 04:08:53;;;;;;;27.40;15.25;;;-2.00;85.90;;;;;;5101956;27;20842;-71
2023/12/01 04:11:19;;;;;;;28.48;16.35;;;-2.00;85.70;;;;;;5103391;27;20426;-71
2023/12/01 04:13:44;;;;;;;27.80;16.10;;;-2.10;86.00;;;;;;5112129;27;21088;-71
2023/12/01 04:16:10;;;;;;;27.47;15.90;;;-2.00;86.30;;;;;;5111423;27;20489;-71
2023/12/01 04:18:36;;;;;;;28.23;15.90;;;-2.00;86.00;;;;;;5129323;27;20418;-71
2023/12/01 04:21:08;;;;;;;29.63;16.83;;;-2.10;86.00;;;;;;5123477;27;21021;-71
2023/12/01 04:23:34;;;;;;;29.42;16.50;;;-2.10;86.00;;;;;;5090675;27;20461;-71
2023/12/01 04:26:00;;;;;;;30.95;17.58;;;-2.00;86.10;;;;;;5129033;27;20418;-71
2023/12/01 04:28:26;;;;;;;32.07;17.87;;;-2.00;86.30;;;;;;5112539;27;20476;-71
2023/12/01 04:30:52;;;;;;;32.17;18.33;;;-2.00;86.20;;;;;;5128349;27;20406;-71
2023/12/01 04:33:18;;;;;;;32.53;19.05;;;-2.00;85.90;;;;;;5098325;27;20756;-71
2023/12/01 04:35:43;;;;;;;31.70;19.07;;;-2.00;85.90;;;;;;5124840;27;20386;-71
2023/12/01 04:38:09;;;;;;;31.60;18.83;;;-2.00;86.00;;;;;;5111316;27;20421;-71
2023/12/01 04:40:38;;;;;;;37.03;20.60;;;-2.00;86.00;;;;;;5111454;27;20467;-71
2023/12/01 04:43:04;;;;;;;36.20;20.65;;;-2.00;86.10;;;;;;5112189;27;20459;-71
2023/12/01 04:45:35;;;;;;;36.08;20.83;;;-2.00;86.20;;;;;;5084509;27;20899;-71
2023/12/01 04:48:01;;;;;;;38.88;22.25;;;-2.00;86.00;;;;;;5130000;27;20499;-71
2023/12/01 04:50:29;;;;;;;35.70;20.27;;;-2.00;86.00;;;;;;5130242;27;20768;-71
2023/12/01 04:52:58;;;;;;;39.17;22.80;;;-2.00;85.60;;;;;;5129432;27;20423;-71
2023/12/01 04:55:29;;;;;;;42.33;23.75;;;-2.00;85.00;;;;;;5111586;27;20411;-71
2023/12/01 04:57:55;;;;;;;40.58;22.58;;;-2.10;85.00;;;;;;5101829;28;20416;-71
2023/12/01 05:00:25;;;;;;;44.55;24.27;;;-2.10;85.20;;;;;;5126995;27;20494;-71
2023/12/01 05:03:00;;;;;;;41.92;23.80;;;-2.10;85.20;;;;;;5129978;27;20952;-71
2023/12/01 05:05:28;;;;;;;40.67;23.08;;;-2.10;85.10;;;;;;5129392;27;20459;-71
2023/12/01 05:07:57;;;;;;;38.50;22.75;;;-2.10;84.70;;;;;;5111058;27;20414;-71
2023/12/01 05:10:25;;;;;;;37.03;21.67;;;-2.20;84.90;;;;;;5115626;27;20411;-71
2023/12/01 05:12:54;;;;;;;33.00;20.23;;;-2.20;85.40;;;;;;5111277;27;20493;-71
2023/12/01 05:15:23;;;;;;;35.13;20.70;;;-2.10;85.50;;;;;;5129485;27;20418;-71
2023/12/01 05:17:51;;;;;;;34.30;20.65;;;-2.20;85.40;;;;;;5129157;27;20418;-71
2023/12/01 05:20:18;;;;;;;33.08;20.13;;;-2.20;85.10;;;;;;5129633;27;20481;-71
2023/12/01 05:22:51;;;;;;;31.33;18.77;;;-2.20;84.50;;;;;;5111251;27;20482;-71
2023/12/01 05:25:19;;;;;;;34.85;20.58;;;-2.20;84.50;;;;;;5129421;27;20399;-71
2023/12/01 05:27:51;;;;;;;32.92;20.08;;;-2.20;84.70;;;;;;5129129;27;20460;-71
2023/12/01 05:30:22;;;;;;;33.60;19.65;;;-2.20;84.90;;;;;;5093165;27;20434;-71
2023/12/01 05:32:49;;;;;;;31.85;19.27;;;-2.20;84.80;;;;;;5107506;27;20767;-71
2023/12/01 05:35:16;;;;;;;31.52;19.63;;;-2.20;84.70;;;;;;5128714;27;20426;-72
2023/12/01 05:37:48;;;;;;;31.80;19.13;;;-2.20;84.40;;;;;;5128822;27;20423;-71
2023/12/01 05:40:16;;;;;;;30.83;19.00;;;-2.20;84.10;;;;;;5128277;27;20462;-71
2023/12/01 05:42:43;;;;;;;32.33;19.10;;;-2.20;83.90;;;;;;5127602;27;20427;-71
2023/12/01 05:45:13;;;;;;;33.63;19.15;;;-2.20;83.90;;;;;;5129403;27;20477;-71
2023/12/01 05:47:43;;;;;;;29.38;18.75;;;-2.30;84.00;;;;;;5110661;27;20402;-71
2023/12/01 05:50:27;;;;;;;34.28;19.35;;;-2.30;83.90;;;;;;5128973;27;20435;-71
2023/12/01 05:52:54;;;;;;;34.40;20.15;;;-2.30;83.90;;;;;;5121794;27;20406;-71
2023/12/01 05:55:22;;;;;;;32.33;19.52;;;-2.30;83.90;;;;;;5122885;27;20443;-71
2023/12/01 05:57:50;;;;;;;33.22;19.33;;;-2.30;84.00;;;;;;5120240;27;20445;-71
2023/12/01 06:00:21;;;;;;;33.38;20.08;;;-2.30;83.60;;;;;;5105799;27;20407;-71
2023/12/01 06:02:48;;;;;;;30.95;19.20;;;-2.30;83.40;;;;;;5127780;27;20427;-72
2023/12/01 06:05:15;;;;;;;31.58;19.40;;;-2.30;83.20;;;;;;5129022;27;20395;-71
2023/12/01 06:07:49;;;;;;;31.45;19.25;;;-2.30;83.30;;;;;;5128189;27;20545;-71
2023/12/01 06:10:15;;;;;;;32.00;19.52;;;-2.30;83.30;;;;;;5110162;27;20414;-71
2023/12/01 06:12:41;;;;;;;33.78;19.88;;;-2.30;83.40;;;;;;5128650;27;20476;-71
2023/12/01 06:15:12;;;;;;;32.13;19.30;;;-2.30;83.40;;;;;;5115226;27;20417;-71
2023/12/01 06:17:39;;;;;;;33.92;20.25;;;-2.30;83.30;;;;;;5102736;27;20422;-71
2023/12/01 06:20:16;;;;;;;33.65;20.05;;;-2.30;83.30;;;;;;5110243;28;20403;-71
2023/12/01 06:22:59;;;;;;;33.90;20.23;;;-2.40;82.90;;;;;;5110249;28;21041;-71
2023/12/01 06:25:30;;;;;;;30.60;19.65;;;-2.40;82.80;;;;;;5118047;28;20421;-71
2023/12/01 06:27:58;;;;;;;32.25;18.95;;;-2.40;82.90;;;;;;5128084;27;20470;-70
2023/12/01 06:30:35;;;;;;;28.97;18.27;;;-2.40;82.90;;;;;;5128182;27;20406;-69
2023/12/01 06:33:02;;;;;;;29.15;18.08;;;-2.40;83.30;;;;;;5122128;27;20414;-69
2023/12/01 06:35:28;;;;;;;31.58;18.40;;;-2.40;82.70;;;;;;5128362;28;20410;-71
2023/12/01 06:37:53;;;;;;;32.30;19.35;;;-2.40;82.70;;;;;;5128431;28;21159;-71
2023/12/01 06:40:20;;;;;;;30.00;18.23;;;-2.50;82.60;;;;;;5128821;28;20390;-71
2023/12/01 06:42:52;;;;;;;31.20;18.75;;;-2.50;82.70;;;;;;5128085;27;20498;-72
2023/12/01 06:45:20;;;;;;;31.05;18.98;;;-2.50;82.40;;;;;;5128098;28;20490;-71
2023/12/01 06:47:49;;;;;;;28.90;18.10;;;-2.50;82.20;;;;;;5128218;28;20825;-72
2023/12/01 06:50:17;;;;;;;33.10;18.80;;;-2.50;82.30;;;;;;5128221;28;20478;-72
2023/12/01 06:52:45;;;;;;;31.65;19.13;;;-2.50;81.80;;;;;;5128388;27;20823;-72
2023/12/01 06:55:11;;;;;;;33.13;18.25;;;-2.60;82.00;;;;;;5130220;27;20459;-72
2023/12/01 06:57:38;;;;;;;31.15;18.65;;;-2.60;81.90;;;;;;5125309;27;20393;-72
2023/12/01 07:00:08;;;;;;;32.75;17.75;;;-2.60;81.80;;;;;;5125379;27;20904;-71
2023/12/01 07:02:38;;;;;;;31.13;18.08;;;-2.60;81.60;;;;;;5132694;27;20780;-72
2023/12/01 07:05:05;;;;;;;30.20;18.00;;;-2.60;81.70;;;;;;5113468;27;20886;-72
2023/12/01 07:07:31;;;;;;;34.97;19.17;;;-2.70;81.70;;;;;;5096966;27;20407;-71
2023/12/01 07:09:57;;;;;;;33.08;20.20;;;-2.60;81.80;;;;;;5131895;27;20403;-72
2023/12/01 07:12:23;;;;;;;32.92;19.88;;;-2.60;81.60;;;;;;5132801;27;20403;-72
2023/12/01 07:14:49;;;;;;;31.23;19.07;;;-2.60;81.40;;;;;;5113621;27;20425;-72
2023/12/01 07:17:14;;;;;;;35.15;21.25;;;-2.60;81.50;;;;;;5132565;27;20398;-72
2023/12/01 07:19:40;;;;;;;35.45;20.92;;;-2.60;82.40;;;;;;5131533;27;21261;-72
2023/12/01 07:22:07;;;;;;;36.15;20.88;;;-2.60;81.60;;;;;;5131752;27;20423;-72
2023/12/01 07:24:33;;;;;;;37.90;21.38;;;-2.60;81.30;;;;;;5131886;27;20394;-72
2023/12/01 07:27:00;;;;;;;34.13;20.48;;;-2.60;80.70;;;;;;5131980;27;20398;-72
2023/12/01 07:29:26;;;;;;;32.20;19.55;;;-2.70;80.60;;;;;;5130985;27;20391;-72
2023/12/01 07:31:52;;;;;;;29.75;18.27;;;-2.70;81.10;;;;;;5132248;27;20748;-72
2023/12/01 07:34:18;;;;;;;31.67;19.33;;;-2.70;81.20;;;;;;5131750;27;20473;-72
2023/12/01 07:36:44;;;;;;;34.25;20.50;;;-2.60;80.90;;;;;;5131541;27;20399;-72
2023/12/01 07:39:10;;;;;;;33.10;20.20;;;-2.60;80.50;;;;;;5131603;27;20399;-72
2023/12/01 07:41:35;;;;;;;34.38;20.50;;;-2.60;80.90;;;;;;5131446;27;20417;-72
2023/12/01 07:44:02;;;;;;;36.20;23.00;;;-2.60;81.20;;;;;;5131650;27;20402;-72
2023/12/01 07:46:32;;;;;;;38.50;24.02;;;-2.60;82.00;;;;;;5131193;27;20516;-72
2023/12/01 07:48:59;;;;;;;35.20;21.83;;;-2.50;82.40;;;;;;5131397;27;20403;-72
2023/12/01 07:51:25;;;;;;;36.70;22.25;;;-2.40;82.30;;;;;;5121213;27;20399;-72
2023/12/01 07:53:51;;;;;;;35.42;21.98;;;-2.40;82.20;;;;;;5112867;27;20418;-71
2023/12/01 07:56:23;;;;;;;33.00;20.80;;;-2.40;81.00;;;;;;5131535;27;20394;-71
2023/12/01 07:58:50;;;;;;;34.40;21.67;;;-2.40;81.50;;;;;;5116659;27;20398;-72
2023/12/01 08:01:16;;;;;;;36.92;23.08;;;-2.40;81.10;;;;;;5131019;27;20403;-72
2023/12/01 08:03:46;;;;;;;38.95;23.42;;;-2.30;81.90;;;;;;5130882;27;20459;-72
2023/12/01 08:06:13;;;;;;;33.40;20.92;;;-2.30;82.20;;;;;;5130272;27;20921;-72
2023/12/01 08:08:39;;;;;;;30.90;18.98;;;-2.20;82.50;;;;;;5130144;27;20912;-72
2023/12/01 08:11:05;;;;;;;31.77;19.23;;;-2.20;82.70;;;;;;5131229;27;20414;-72
2023/12/01 08:13:30;;;;;;;32.47;19.43;;;-2.10;83.10;;;;;;5130953;27;20530;-73
2023/12/01 08:15:56;;;;;;;31.98;19.77;;;-2.10;82.30;;;;;;5112473;27;20398;-72
2023/12/01 08:18:22;;;;;;;31.55;19.55;;;-2.00;81.70;;;;;;5130426;27;20408;-72
2023/12/01 08:20:49;;;;;;;31.33;19.30;;;-2.00;81.30;;;;;;5130863;27;20386;-72
2023/12/01 08:23:15;;;;;;;34.50;20.33;;;-2.00;81.00;;;;;;5111619;27;20430;-72
2023/12/01 08:25:42;;;;;;;32.45;20.20;;;-2.00;80.80;;;;;;5112438;27;20398;-72
2023/12/01 08:28:07;;;;;;;33.78;20.15;;;-2.00;81.00;;;;;;5130432;27;20400;-72
2023/12/01 08:30:33;;;;;;;34.77;20.63;;;-1.90;81.30;;;;;;5112514;27;20407;-72
2023/12/01 08:32:58;;;;;;;34.07;20.23;;;-1.90;81.40;;;;;;5112510;27;20809;-72
2023/12/01 08:35:24;;;;;;;32.38;20.10;;;-1.90;80.80;;;;;;5130446;27;20403;-72
2023/12/01 08:37:51;;;;;;;34.57;20.70;;;-1.80;81.00;;;;;;5130570;27;20422;-72
2023/12/01 08:40:16;;;;;;;31.25;20.15;;;-1.80;81.30;;;;;;5130435;27;20432;-72
2023/12/01 08:42:42;;;;;;;32.08;19.58;;;-1.80;81.20;;;;;;5099407;27;20430;-72
2023/12/01 08:45:10;;;;;;;34.70;20.88;;;-1.80;81.20;;;;;;5130231;27;20394;-72
2023/12/01 08:47:36;;;;;;;35.90;20.53;;;-1.70;81.30;;;;;;5129577;27;20436;-72
2023/12/01 08:50:02;;;;;;;34.20;20.90;;;-1.70;81.50;;;;;;5130741;27;20818;-72
2023/12/01 08:52:28;;;;;;;34.55;20.25;;;-1.70;81.10;;;;;;5129685;27;21328;-72
2023/12/01 08:54:55;;;;;;;35.28;19.95;;;-1.70;81.50;;;;;;5129847;27;20403;-72
2023/12/01 08:57:20;;;;;;;33.63;20.23;;;-1.60;81.40;;;;;;5106568;28;20424;-72
2023/12/01 08:59:46;;;;;;;32.00;20.60;;;-1.60;81.50;;;;;;5121005;27;20434;-72
2023/12/01 09:02:11;;;;;;;36.87;20.77;;;-1.60;81.50;;;;;;5111552;27;20499;-72
2023/12/01 09:04:37;;;;;;;33.40;20.40;;;-1.60;82.20;;;;;;5129576;27;20402;-72
2023/12/01 09:07:04;;;;;;;31.90;20.40;;;-1.50;82.30;;;;;;5129645;27;20770;-72
2023/12/01 09:09:30;;;;;;;31.02;19.70;;;-1.50;82.00;;;;;;5129862;27;20470;-73
2023/12/01 09:11:56;;;;;;;29.23;18.67;;;-1.50;82.00;;;;;;5111302;27;20830;-72
2023/12/01 09:14:21;;;;;;;30.87;19.40;;;-1.50;81.80;;;;;;5111416;27;20395;-72
2023/12/01 09:16:47;;;;;;;31.47;19.10;;;-1.50;81.60;;;;;;5129557;27;20402;-72
2023/12/01 09:19:13;;;;;;;31.42;19.20;;;-1.40;81.20;;;;;;5129673;27;20403;-72
2023/12/01 09:21:39;;;;;;;31.57;19.80;;;-1.40;81.20;;;;;;5128742;27;20491;-72
2023/12/01 09:24:05;;;;;;;30.67;19.55;;;-1.40;81.10;;;;;;5094291;27;20403;-72
2023/12/01 09:26:31;;;;;;;30.17;19.20;;;-1.40;81.30;;;;;;5129077;27;20398;-72
2023/12/01 09:28:57;;;;;;;31.05;18.95;;;-1.30;81.60;;;;;;5129765;27;20399;-72
2023/12/01 09:31:23;;;;;;;29.80;19.10;;;-1.30;80.90;;;;;;5110679;27;20414;-72
2023/12/01 09:33:48;;;;;;;30.23;19.15;;;-1.30;80.80;;;;;;5129465;27;20402;-72
2023/12/01 09:36:17;;;;;;;29.25;18.63;;;-1.20;81.30;;;;;;5129626;27;20434;-72
2023/12/01 09:38:43;;;;;;;31.35;19.25;;;-1.20;81.50;;;;;;5129442;27;20395;-72
2023/12/01 09:41:14;;;;;;;30.88;19.38;;;-1.10;81.70;;;;;;5129049;27;20394;-72
2023/12/01 09:43:43;;;;;;;33.67;20.95;;;-1.00;83.40;;;;;;5129327;27;20402;-72
2023/12/01 09:46:11;;;;;;;33.13;20.75;;;-0.90;83.30;;;;;;5126498;27;20473;-72
2023/12/01 09:48:42;;;;;;;31.10;20.13;;;-0.80;82.80;;;;;;5128951;27;20413;-72
2023/12/01 09:51:08;;;;;;;34.20;20.90;;;-0.60;82.60;;;;;;5129374;27;20447;-72
2023/12/01 09:53:34;;;;;;;32.97;21.38;;;-0.60;81.20;;;;;;5128686;27;20417;-72
2023/12/01 09:56:03;;;;;;;32.50;20.40;;;-0.50;79.60;;;;;;5128783;27;20470;-73
2023/12/01 09:58:30;;;;;;;32.80;20.98;;;-0.50;78.30;;;;;;5115055;27;20428;-72
2023/12/01 10:00:56;;;;;;;32.50;20.60;;;-0.40;78.40;;;;;;5129254;27;20395;-72
2023/12/01 10:03:22;;;;;;;32.60;20.40;;;-0.40;78.00;;;;;;5128343;27;20422;-72
2023/12/01 10:05:48;;;;;;;34.20;21.83;;;-0.30;77.80;;;;;;5129148;27;20489;-72
2023/12/01 10:08:15;;;;;;;32.50;21.17;;;-0.30;76.10;;;;;;5128286;27;20394;-72
2023/12/01 10:10:41;;;;;;;32.25;21.08;;;-0.30;76.90;;;;;;5128666;27;20486;-73
2023/12/01 10:13:07;;;;;;;31.85;20.42;;;-0.20;77.20;;;;;;5128699;27;20481;-73
2023/12/01 10:15:38;;;;;;;31.08;20.08;;;-0.10;77.20;;;;;;5129007;27;20399;-72
2023/12/01 10:18:17;;;;;;;30.70;19.93;;;0.00;76.90;;;;;;5128543;27;20403;-73
2023/12/01 10:20:58;;;;;;;31.55;21.25;;;0.00;75.50;;;;;;5110114;27;20418;-72
2023/12/01 10:23:24;;;;;;;32.67;20.58;;;0.10;74.00;;;;;;5109761;27;21015;-73
2023/12/01 10:25:51;;;;;;;30.92;20.30;;;0.00;72.30;;;;;;5127334;27;20413;-72
2023/12/01 10:28:18;;;;;;;31.70;21.20;;;0.10;71.80;;;;;;5128709;27;20959;-72
2023/12/01 10:30:57;;;;;;;32.95;20.42;;;0.10;73.20;;;;;;5135008;27;20410;-72
2023/12/01 10:33:29;;;;;;;32.13;20.80;;;0.30;74.00;;;;;;5122953;27;20405;-73
2023/12/01 10:36:07;;;;;;;31.77;20.83;;;0.30;72.20;;;;;;5135231;27;20421;-72
2023/12/01 10:38:34;;;;;;;31.50;20.58;;;0.30;71.10;;;;;;5135410;27;20406;-73
2023/12/01 10:41:03;;;;;;;31.02;19.83;;;0.30;71.80;;;;;;5135244;27;20483;-73
2023/12/01 10:43:29;;;;;;;32.03;20.55;;;0.40;72.70;;;;;;5135306;27;20414;-73
2023/12/01 10:45:59;;;;;;;31.73;20.93;;;0.50;72.70;;;;;;5134964;27;20414;-73
2023/12/01 10:48:28;;;;;;;30.88;19.95;;;0.50;70.60;;;;;;5135116;27;20422;-72
2023/12/01 10:50:54;;;;;;;33.17;21.23;;;0.60;69.50;;;;;;5135287;27;20466;-72
2023/12/01 10:53:22;;;;;;;33.15;20.90;;;0.60;69.30;;;;;;5135714;27;20390;-72
2023/12/01 10:55:49;;;;;;;32.08;21.25;;;0.60;69.00;;;;;;5116237;27;20413;-72
2023/12/01 10:58:23;;;;;;;36.08;21.20;;;0.70;69.10;;;;;;5135058;27;20748;-73
2023/12/01 11:00:53;;;;;;;35.55;23.20;;;0.70;67.80;;;;;;5135294;27;20455;-73
2023/12/01 11:03:22;;;;;;;34.90;22.52;;;0.70;69.90;;;;;;5135092;27;20532;-72
2023/12/01 11:05:52;;;;;;;32.55;21.92;;;1.20;83.70;;;;;;5135052;27;20402;-73
2023/12/01 11:08:46;;;;;;;31.15;20.58;;;2.00;89.90;;;;;;5134381;27;20482;-73
2023/12/01 11:11:21;;;;;;;30.88;21.05;;;2.80;82.30;;;;;;5135122;27;20402;-73
2023/12/01 11:14:17;;;;;;;29.45;20.25;;;3.40;65.50;;;;;;5134811;27;20485;-73
2023/12/01 11:16:42;;;;;;;30.05;19.63;;;3.70;57.20;;;;;;5099444;27;20440;-73
2023/12/01 11:19:10;;;;;;;29.75;20.50;;;4.10;45.80;;;;;;5135572;27;20394;-73
2023/12/01 11:21:40;;;;;;;32.40;20.88;;;4.10;31.40;;;;;;5133897;27;20497;-73
2023/12/01 11:24:31;;;;;;;32.03;20.92;;;3.90;25.00;;;;;;5116936;27;20475;-73
2023/12/01 11:27:04;;;;;;;31.45;21.15;;;3.60;23.90;;;;;;5122894;27;20912;-73
2023/12/01 11:29:34;;;;;;;30.50;21.05;;;3.20;21.50;;;;;;5134910;27;20401;-73
2023/12/01 11:32:00;;;;;;;31.35;19.92;;;2.80;25.20;;;;;;5134687;27;20400;-73
2023/12/01 11:34:26;;;;;;;34.22;20.55;;;2.50;29.90;;;;;;5134851;27;20394;-73
2023/12/01 11:36:56;;;;;;;31.55;19.98;;;2.30;33.60;;;;;;5116624;27;20410;-73
2023/12/01 11:41:58;;;;;;;29.50;19.35;;;1.90;38.90;;;;;;5131997;27;20479;-73
2023/12/01 11:44:34;;;;;;;29.05;18.83;;;1.70;40.60;;;;;;5112474;27;20434;-73
2023/12/01 11:47:02;;;;;;;28.88;18.38;;;1.50;43.50;;;;;;5131939;27;20459;-73
2023/12/01 11:49:38;;;;;;;31.85;19.70;;;1.40;48.80;;;;;;5113011;27;20447;-73
2023/12/01 11:52:19;;;;;;;29.83;18.73;;;1.30;50.50;;;;;;5131363;27;21239;-73
2023/12/01 11:54:47;;;;;;;32.73;20.07;;;1.20;52.40;;;;;;5112588;27;20418;-73
2023/12/01 11:57:17;;;;;;;32.50;19.63;;;1.20;53.00;;;;;;5127396;27;20432;-73
2023/12/01 11:59:43;;;;;;;32.15;19.90;;;1.10;52.80;;;;;;5103175;27;20436;-73
2023/12/01 12:02:09;;;;;;;33.20;20.10;;;1.00;54.00;;;;;;5131068;27;20413;-73
2023/12/01 12:04:37;;;;;;;32.55;19.95;;;0.90;55.60;;;;;;5131109;27;20398;-73
2023/12/01 12:07:04;;;;;;;31.33;19.93;;;1.00;58.00;;;;;;5131264;27;20468;-73
2023/12/01 12:09:32;;;;;;;31.30;19.52;;;1.00;57.60;;;;;;5130704;27;20432;-73
2023/12/01 12:11:59;;;;;;;31.60;19.63;;;0.90;57.30;;;;;;5130784;27;20434;-73
2023/12/01 12:14:29;;;;;;;34.50;20.63;;;0.80;57.10;;;;;;5131314;27;20390;-73
2023/12/01 12:16:54;;;;;;;32.17;19.63;;;0.70;57.00;;;;;;5130563;27;20455;-73
2023/12/01 12:19:21;;;;;;;36.53;21.05;;;0.60;58.30;;;;;;5095575;27;20402;-73
2023/12/01 12:21:48;;;;;;;35.35;21.40;;;0.60;60.70;;;;;;5130711;27;20429;-73
2023/12/01 12:24:15;;;;;;;36.95;22.50;;;0.50;62.00;;;;;;5112260;27;20402;-73
2023/12/01 12:26:40;;;;;;;37.00;21.88;;;0.50;63.30;;;;;;5130488;27;20430;-73
2023/12/01 12:29:07;;;;;;;36.47;22.50;;;0.50;67.10;;;;;;5112404;27;20431;-73
2023/12/01 12:31:38;;;;;;;36.65;21.83;;;0.70;69.80;;;;;;5108463;27;20459;-73
2023/12/01 12:34:10;;;;;;;38.45;21.55;;;0.80;69.60;;;;;;5130756;27;20413;-73